createdAt,value
2023-08-04T00:00:08.491Z,85.02
2023-08-04T00:01:11.236Z,84.77
2023-08-04T00:02:13.858Z,84.22
2023-08-04T00:03:16.663Z,84.27
2023-08-04T00:04:19.281Z,84.57
2023-08-04T00:05:21.880Z,84.76
2023-08-04T00:06:24.521Z,84.88
2023-08-04T00:07:27.131Z,84.68
2023-08-04T00:08:29.751Z,84.59
2023-08-04T00:09:32.382Z,84.79
2023-08-04T00:10:35.002Z,84.82
2023-08-04T00:11:37.602Z,84.90
2023-08-04T00:12:40.205Z,85.06
2023-08-04T00:13:42.777Z,85.00
2023-08-04T00:14:48.158Z,84.68
2023-08-04T00:15:50.776Z,84.46
2023-08-04T00:16:53.423Z,84.07
2023-08-04T00:17:57.216Z,83.99
2023-08-04T00:18:59.830Z,84.33
2023-08-04T00:20:04.158Z,84.61
2023-08-04T00:21:06.780Z,84.58
2023-08-04T00:22:09.591Z,84.27
2023-08-04T00:23:12.159Z,83.97
2023-08-04T00:24:14.741Z,84.14
2023-08-04T00:25:17.416Z,84.32
2023-08-04T00:26:19.983Z,84.52
2023-08-04T00:27:22.576Z,84.42
2023-08-04T00:28:25.201Z,84.63
2023-08-04T00:29:28.258Z,84.72
2023-08-04T00:30:30.910Z,84.82
2023-08-04T00:31:33.617Z,84.89
2023-08-04T00:32:36.308Z,84.81
2023-08-04T00:33:38.898Z,84.80
2023-08-04T00:34:41.460Z,84.53
2023-08-04T00:35:44.051Z,84.54
2023-08-04T00:36:48.754Z,84.18
2023-08-04T00:37:51.435Z,83.71
2023-08-04T00:38:54.053Z,83.15
2023-08-04T00:39:56.671Z,82.56
2023-08-04T00:40:59.331Z,81.98
2023-08-04T00:42:01.951Z,81.77
2023-08-04T00:43:04.576Z,81.61
2023-08-04T00:44:07.145Z,81.55
2023-08-04T00:45:10.278Z,81.62
2023-08-04T00:46:12.943Z,81.53
2023-08-04T00:47:15.826Z,81.79
2023-08-04T00:48:18.572Z,82.08
2023-08-04T00:49:22.246Z,82.15
2023-08-04T00:50:24.914Z,82.25
2023-08-04T00:51:27.606Z,82.31
2023-08-04T00:52:30.348Z,82.30
2023-08-04T00:53:33.067Z,82.32
2023-08-04T00:54:37.286Z,82.65
2023-08-04T00:55:40.341Z,82.39
2023-08-04T00:56:43.022Z,82.14
2023-08-04T00:57:45.838Z,82.56
2023-08-04T00:58:48.448Z,82.81
2023-08-04T00:59:55.451Z,82.91
2023-08-04T01:00:58.114Z,82.86
2023-08-04T01:02:00.724Z,82.86
2023-08-04T01:03:03.430Z,83.23
2023-08-04T01:04:06.203Z,83.26
2023-08-04T01:05:09.400Z,83.21
2023-08-04T01:06:30.489Z,83.30
2023-08-04T01:07:39.688Z,83.46
2023-08-04T01:08:52.861Z,83.98
2023-08-04T01:10:04.557Z,84.12
2023-08-04T01:11:14.207Z,83.94
2023-08-04T01:12:46.199Z,84.03
2023-08-04T01:13:48.879Z,84.21
2023-08-04T01:14:54.918Z,84.17
2023-08-04T01:15:58.275Z,84.19
2023-08-04T01:17:22.801Z,84.26
2023-08-04T01:18:25.387Z,84.23
2023-08-04T01:19:28.051Z,84.49
2023-08-04T01:20:30.676Z,84.32
2023-08-04T01:21:51.562Z,84.32
2023-08-04T01:22:54.600Z,83.80
2023-08-04T01:23:57.210Z,83.65
2023-08-04T01:24:59.869Z,83.81
2023-08-04T01:26:03.958Z,84.25
2023-08-04T01:27:07.138Z,84.11
2023-08-04T01:28:14.239Z,84.08
2023-08-04T01:29:19.150Z,83.76
2023-08-04T01:30:23.717Z,83.76
2023-08-04T01:31:26.549Z,83.81
2023-08-04T01:32:29.492Z,83.70
2023-08-04T01:33:32.086Z,83.73
2023-08-04T01:34:34.853Z,83.84
2023-08-04T01:35:37.456Z,83.55
2023-08-04T01:36:40.093Z,83.96
2023-08-04T01:37:44.651Z,83.95
2023-08-04T01:38:47.318Z,84.06
2023-08-04T01:39:49.952Z,84.28
2023-08-04T01:40:52.729Z,84.16
2023-08-04T01:41:55.347Z,84.12
2023-08-04T01:42:57.965Z,84.03
2023-08-04T01:44:00.578Z,83.99
2023-08-04T01:45:03.700Z,83.93
2023-08-04T01:46:06.366Z,83.83
2023-08-04T01:47:09.304Z,84.20
2023-08-04T01:48:11.947Z,84.08
2023-08-04T01:49:14.570Z,84.11
2023-08-04T01:50:17.235Z,84.39
2023-08-04T01:51:19.858Z,84.42
2023-08-04T01:52:23.440Z,84.17
2023-08-04T01:53:26.113Z,84.29
2023-08-04T01:54:28.805Z,84.43
2023-08-04T01:55:31.384Z,84.20
2023-08-04T01:56:33.990Z,84.03
2023-08-04T01:57:36.617Z,84.22
2023-08-04T01:58:39.222Z,83.92
2023-08-04T01:59:42.079Z,83.70
2023-08-04T02:00:44.696Z,83.45
2023-08-04T02:01:47.585Z,83.40
2023-08-04T02:02:50.608Z,83.51
2023-08-04T02:03:53.393Z,83.63
2023-08-04T02:04:56.024Z,83.61
2023-08-04T02:05:58.651Z,83.72
2023-08-04T02:07:01.225Z,83.58
2023-08-04T02:08:03.903Z,83.81
2023-08-04T02:09:06.615Z,83.65
2023-08-04T02:10:10.224Z,83.65
2023-08-04T02:11:12.807Z,83.10
2023-08-04T02:12:15.363Z,83.06
2023-08-04T02:13:17.941Z,83.18
2023-08-04T02:14:20.555Z,83.05
2023-08-04T02:15:23.483Z,83.00
2023-08-04T02:16:26.125Z,82.92
2023-08-04T02:17:28.806Z,82.93
2023-08-04T02:18:31.437Z,83.00
2023-08-04T02:19:34.044Z,83.14
2023-08-04T02:20:36.651Z,82.90
2023-08-04T02:21:39.398Z,82.88
2023-08-04T02:22:42.026Z,82.93
2023-08-04T02:23:44.619Z,83.16
2023-08-04T02:24:47.306Z,82.95
2023-08-04T02:25:49.906Z,82.87
2023-08-04T02:26:52.532Z,82.92
2023-08-04T02:27:55.134Z,82.83
2023-08-04T02:28:58.086Z,83.01
2023-08-04T02:30:01.160Z,82.85
2023-08-04T02:31:03.843Z,82.95
2023-08-04T02:32:07.001Z,83.08
2023-08-04T02:33:09.936Z,83.27
2023-08-04T02:34:13.083Z,82.86
2023-08-04T02:35:15.822Z,83.00
2023-08-04T02:36:18.516Z,82.96
2023-08-04T02:37:21.108Z,82.76
2023-08-04T02:38:23.690Z,82.82
2023-08-04T02:39:26.312Z,82.93
2023-08-04T02:40:28.944Z,83.13
2023-08-04T02:41:31.557Z,83.21
2023-08-04T02:42:34.189Z,83.43
2023-08-04T02:43:37.480Z,83.54
2023-08-04T02:44:40.071Z,83.50
2023-08-04T02:45:52.499Z,83.42
2023-08-04T02:46:55.340Z,83.25
2023-08-04T02:47:57.972Z,83.20
2023-08-04T02:49:00.566Z,83.24
2023-08-04T02:50:03.192Z,83.16
2023-08-04T02:51:10.675Z,83.24
2023-08-04T02:52:15.945Z,83.29
2023-08-04T02:53:18.634Z,83.32
2023-08-04T02:54:21.250Z,83.45
2023-08-04T02:55:23.892Z,83.46
2023-08-04T02:56:26.545Z,83.41
2023-08-04T02:57:32.321Z,83.45
2023-08-04T02:58:34.930Z,83.32
2023-08-04T02:59:37.787Z,83.39
2023-08-04T03:00:40.447Z,83.39
2023-08-04T03:01:43.071Z,83.67
2023-08-04T03:02:45.716Z,83.94
2023-08-04T03:03:48.368Z,83.91
2023-08-04T03:04:50.998Z,83.61
2023-08-04T03:05:53.610Z,83.19
2023-08-04T03:06:56.262Z,83.24
2023-08-04T03:07:58.885Z,83.44
2023-08-04T03:09:01.509Z,83.43
2023-08-04T03:10:04.288Z,83.70
2023-08-04T03:11:13.034Z,83.83
2023-08-04T03:12:15.709Z,83.68
2023-08-04T03:13:18.292Z,83.76
2023-08-04T03:14:20.898Z,83.97
2023-08-04T03:15:23.521Z,83.96
2023-08-04T03:16:26.134Z,83.96
2023-08-04T03:17:30.033Z,83.92
2023-08-04T03:18:32.758Z,83.88
2023-08-04T03:19:35.339Z,83.98
2023-08-04T03:20:39.949Z,84.00
2023-08-04T03:21:42.602Z,83.72
2023-08-04T03:22:45.238Z,83.51
2023-08-04T03:23:47.834Z,83.22
2023-08-04T03:24:50.416Z,83.09
2023-08-04T03:25:52.987Z,83.01
2023-08-04T03:26:55.628Z,82.87
2023-08-04T03:27:58.262Z,82.97
2023-08-04T03:29:00.875Z,83.09
2023-08-04T03:30:04.636Z,83.07
2023-08-04T03:31:07.210Z,83.21
2023-08-04T03:32:09.874Z,83.32
2023-08-04T03:33:12.497Z,83.67
2023-08-04T03:34:15.132Z,83.79
2023-08-04T03:35:17.908Z,83.54
2023-08-04T03:36:20.538Z,83.68
2023-08-04T03:37:23.166Z,83.39
2023-08-04T03:38:26.164Z,83.52
2023-08-04T03:39:29.443Z,83.67
2023-08-04T03:40:32.103Z,83.84
2023-08-04T03:41:34.703Z,83.54
2023-08-04T03:42:40.307Z,83.73
2023-08-04T03:43:42.898Z,83.85
2023-08-04T03:44:45.842Z,83.40
2023-08-04T03:45:48.507Z,82.80
2023-08-04T03:46:51.143Z,83.24
2023-08-04T03:47:53.835Z,83.53
2023-08-04T03:48:56.504Z,83.13
2023-08-04T03:50:01.211Z,83.18
2023-08-04T03:51:04.902Z,82.97
2023-08-04T03:52:07.639Z,83.15
2023-08-04T03:53:10.263Z,83.33
2023-08-04T03:54:12.856Z,83.56
2023-08-04T03:55:15.465Z,83.38
2023-08-04T03:56:18.032Z,83.30
2023-08-04T03:57:20.641Z,83.65
2023-08-04T03:58:23.278Z,83.45
2023-08-04T03:59:25.910Z,83.31
2023-08-04T04:00:28.510Z,83.53
2023-08-04T04:01:31.210Z,83.54
2023-08-04T04:02:33.887Z,83.63
2023-08-04T04:03:36.573Z,83.90
2023-08-04T04:04:39.284Z,84.00
2023-08-04T04:05:41.936Z,84.09
2023-08-04T04:06:44.610Z,84.22
2023-08-04T04:07:47.203Z,84.28
2023-08-04T04:08:49.800Z,84.19
2023-08-04T04:09:52.460Z,84.03
2023-08-04T04:10:56.454Z,83.98
2023-08-04T04:11:59.101Z,84.19
2023-08-04T04:13:01.797Z,84.33
2023-08-04T04:14:04.369Z,84.59
2023-08-04T04:15:07.665Z,84.41
2023-08-04T04:16:10.275Z,84.48
2023-08-04T04:17:12.933Z,84.49
2023-08-04T04:18:16.481Z,84.62
2023-08-04T04:19:19.401Z,84.61
2023-08-04T04:20:22.008Z,84.47
2023-08-04T04:21:24.635Z,84.69
2023-08-04T04:22:27.314Z,84.72
2023-08-04T04:23:29.949Z,84.79
2023-08-04T04:24:32.544Z,84.78
2023-08-04T04:25:35.137Z,84.67
2023-08-04T04:26:37.747Z,84.55
2023-08-04T04:27:40.325Z,84.48
2023-08-04T04:28:42.937Z,84.08
2023-08-04T04:29:45.557Z,83.94
2023-08-04T04:30:48.216Z,84.02
2023-08-04T04:31:50.945Z,84.22
2023-08-04T04:32:53.545Z,84.11
2023-08-04T04:33:56.161Z,83.75
2023-08-04T04:34:58.784Z,83.63
2023-08-04T04:36:01.446Z,83.58
2023-08-04T04:37:04.174Z,83.52
2023-08-04T04:38:06.751Z,83.66
2023-08-04T04:39:09.954Z,83.75
2023-08-04T04:40:12.683Z,83.75
2023-08-04T04:41:15.277Z,83.94
2023-08-04T04:42:18.264Z,83.95
2023-08-04T04:43:20.855Z,84.12
2023-08-04T04:44:23.574Z,84.25
2023-08-04T04:45:26.181Z,84.52
2023-08-04T04:46:28.881Z,84.65
2023-08-04T04:47:31.553Z,84.79
2023-08-04T04:48:34.225Z,84.83
2023-08-04T04:49:36.841Z,85.02
2023-08-04T04:50:39.452Z,85.08
2023-08-04T04:51:42.064Z,85.19
2023-08-04T04:52:44.644Z,85.22
2023-08-04T04:53:47.301Z,85.31
2023-08-04T04:54:50.023Z,85.46
2023-08-04T04:55:52.598Z,85.77
2023-08-04T04:56:55.246Z,85.82
2023-08-04T04:57:57.838Z,85.74
2023-08-04T04:59:00.428Z,85.76
2023-08-04T05:00:04.918Z,86.06
2023-08-04T05:01:09.163Z,85.93
2023-08-04T05:02:11.906Z,86.34
2023-08-04T05:03:14.637Z,86.24
2023-08-04T05:04:17.326Z,86.36
2023-08-04T05:05:20.090Z,86.41
2023-08-04T05:06:22.759Z,86.59
2023-08-04T05:07:25.400Z,86.37
2023-08-04T05:08:28.020Z,85.91
2023-08-04T05:09:30.625Z,85.80
2023-08-04T05:10:33.238Z,86.00
2023-08-04T05:11:35.889Z,85.79
2023-08-04T05:12:38.882Z,85.81
2023-08-04T05:13:44.542Z,85.12
2023-08-04T05:14:47.234Z,84.54
2023-08-04T05:15:50.508Z,84.63
2023-08-04T05:16:53.122Z,84.64
2023-08-04T05:17:55.771Z,84.53
2023-08-04T05:18:58.379Z,84.30
2023-08-04T05:20:01.162Z,84.89
2023-08-04T05:21:04.673Z,84.64
2023-08-04T05:22:07.295Z,84.25
2023-08-04T05:23:09.938Z,83.87
2023-08-04T05:24:13.651Z,83.98
2023-08-04T05:25:16.214Z,84.04
2023-08-04T05:26:18.857Z,84.18
2023-08-04T05:27:21.508Z,83.89
2023-08-04T05:28:29.042Z,83.67
2023-08-04T05:29:33.788Z,84.30
2023-08-04T05:30:36.758Z,84.16
2023-08-04T05:31:39.355Z,83.61
2023-08-04T05:32:41.987Z,83.16
2023-08-04T05:33:44.649Z,82.92
2023-08-04T05:34:47.268Z,82.28
2023-08-04T05:35:49.894Z,81.93
2023-08-04T05:36:52.500Z,81.71
2023-08-04T05:37:55.116Z,81.83
2023-08-04T05:38:57.701Z,82.01
2023-08-04T05:40:00.349Z,82.01
2023-08-04T05:41:03.386Z,82.02
2023-08-04T05:42:06.147Z,81.85
2023-08-04T05:43:08.805Z,82.18
2023-08-04T05:44:11.452Z,81.97
2023-08-04T05:45:14.023Z,81.90
2023-08-04T05:46:17.073Z,81.84
2023-08-04T05:47:21.001Z,81.80
2023-08-04T05:48:23.612Z,82.24
2023-08-04T05:49:26.265Z,82.23
2023-08-04T05:50:29.103Z,82.60
2023-08-04T05:51:31.733Z,82.51
2023-08-04T05:52:34.308Z,82.77
2023-08-04T05:53:36.943Z,82.79
2023-08-04T05:54:39.553Z,83.01
2023-08-04T05:55:42.120Z,82.84
2023-08-04T05:56:44.811Z,82.60
2023-08-04T05:57:47.489Z,82.62
2023-08-04T05:58:51.814Z,82.89
2023-08-04T05:59:54.697Z,82.86
2023-08-04T06:00:57.333Z,82.83
2023-08-04T06:01:59.988Z,82.93
2023-08-04T06:03:02.679Z,82.97
2023-08-04T06:04:05.659Z,82.67
2023-08-04T06:05:08.888Z,82.56
2023-08-04T06:06:11.668Z,82.39
2023-08-04T06:07:14.305Z,82.47
2023-08-04T06:08:16.990Z,82.14
2023-08-04T06:09:19.595Z,82.25
2023-08-04T06:10:22.230Z,82.45
2023-08-04T06:11:25.814Z,82.74
2023-08-04T06:12:30.780Z,82.58
2023-08-04T06:13:35.838Z,82.85
2023-08-04T06:14:38.479Z,83.03
2023-08-04T06:15:41.156Z,82.32
2023-08-04T06:16:43.749Z,82.39
2023-08-04T06:17:47.237Z,82.62
2023-08-04T06:18:49.937Z,82.78
2023-08-04T06:19:53.069Z,82.46
2023-08-04T06:20:55.728Z,82.10
2023-08-04T06:21:58.358Z,82.22
2023-08-04T06:23:00.994Z,82.31
2023-08-04T06:24:04.613Z,82.24
2023-08-04T06:25:07.797Z,81.98
2023-08-04T06:26:10.391Z,81.72
2023-08-04T06:27:13.078Z,81.53
2023-08-04T06:28:17.157Z,81.83
2023-08-04T06:29:19.735Z,82.10
2023-08-04T06:30:22.350Z,82.14
2023-08-04T06:31:25.037Z,82.08
2023-08-04T06:32:28.265Z,82.18
2023-08-04T06:33:30.856Z,82.24
2023-08-04T06:34:33.482Z,82.15
2023-08-04T06:35:36.126Z,81.77
2023-08-04T06:36:38.781Z,81.30
2023-08-04T06:37:41.398Z,80.49
2023-08-04T06:38:43.982Z,80.34
2023-08-04T06:39:46.569Z,79.42
2023-08-04T06:40:49.181Z,78.49
2023-08-04T06:41:51.957Z,77.62
2023-08-04T06:42:54.839Z,77.36
2023-08-04T06:43:57.449Z,77.21
2023-08-04T06:45:00.146Z,77.36
2023-08-04T06:46:02.814Z,76.50
2023-08-04T06:47:05.770Z,76.07
2023-08-04T06:48:08.591Z,76.22
2023-08-04T06:49:11.253Z,76.05
2023-08-04T06:50:13.902Z,75.74
2023-08-04T06:51:16.544Z,75.92
2023-08-04T06:52:19.189Z,76.27
2023-08-04T06:53:22.193Z,76.52
2023-08-04T06:54:24.853Z,76.17
2023-08-04T06:55:27.470Z,75.79
2023-08-04T06:56:30.059Z,75.17
2023-08-04T06:57:32.664Z,75.25
2023-08-04T06:58:35.272Z,75.24
2023-08-04T06:59:37.861Z,75.56
2023-08-04T07:00:43.372Z,75.48
2023-08-04T07:01:46.469Z,74.92
2023-08-04T07:02:50.436Z,74.79
2023-08-04T07:03:53.082Z,74.91
2023-08-04T07:04:55.688Z,74.89
2023-08-04T07:05:58.317Z,75.10
2023-08-04T07:07:01.500Z,75.48
2023-08-04T07:08:04.234Z,75.39
2023-08-04T07:09:06.819Z,74.93
2023-08-04T07:10:11.525Z,75.11
2023-08-04T07:11:18.507Z,74.88
2023-08-04T07:12:21.136Z,74.89
2023-08-04T07:13:23.778Z,75.10
2023-08-04T07:14:26.406Z,75.36
2023-08-04T07:15:29.070Z,75.32
2023-08-04T07:16:31.717Z,75.14
2023-08-04T07:17:34.280Z,75.45
2023-08-04T07:18:37.605Z,75.37
2023-08-04T07:19:40.195Z,75.19
2023-08-04T07:20:42.810Z,75.46
2023-08-04T07:21:45.659Z,75.75
2023-08-04T07:22:48.634Z,75.82
2023-08-04T07:23:51.297Z,75.84
2023-08-04T07:24:54.748Z,75.74
2023-08-04T07:25:57.985Z,75.88
2023-08-04T07:27:00.633Z,75.68
2023-08-04T07:28:03.218Z,76.18
2023-08-04T07:29:05.853Z,76.06
2023-08-04T07:30:10.905Z,76.14
2023-08-04T07:31:13.741Z,76.22
2023-08-04T07:32:16.547Z,75.38
2023-08-04T07:33:19.374Z,74.63
2023-08-04T07:34:22.009Z,74.82
2023-08-04T07:35:24.594Z,74.98
2023-08-04T07:36:27.492Z,75.21
2023-08-04T07:37:30.523Z,75.21
2023-08-04T07:38:33.543Z,74.24
2023-08-04T07:39:36.184Z,73.92
2023-08-04T07:40:39.688Z,74.04
2023-08-04T07:41:43.338Z,73.50
2023-08-04T07:42:45.956Z,73.82
2023-08-04T07:43:48.616Z,73.92
2023-08-04T07:44:51.200Z,73.76
2023-08-04T07:45:54.775Z,73.42
2023-08-04T07:46:57.443Z,73.58
2023-08-04T07:48:00.163Z,72.72
2023-08-04T07:49:02.796Z,72.84
2023-08-04T07:50:05.959Z,72.48
2023-08-04T07:51:08.568Z,72.36
2023-08-04T07:52:11.210Z,72.76
2023-08-04T07:53:13.840Z,71.57
2023-08-04T07:54:16.489Z,71.11
2023-08-04T07:55:19.080Z,70.81
2023-08-04T07:56:21.700Z,71.04
2023-08-04T07:57:24.352Z,70.89
2023-08-04T07:58:27.012Z,71.19
2023-08-04T07:59:29.602Z,71.08
2023-08-04T08:00:32.292Z,71.03
2023-08-04T08:01:34.916Z,70.93
2023-08-04T08:02:37.700Z,70.55
2023-08-04T08:03:41.430Z,70.62
2023-08-04T08:04:44.179Z,70.66
2023-08-04T08:05:48.322Z,71.10
2023-08-04T08:06:50.985Z,71.39
2023-08-04T08:07:53.673Z,70.81
2023-08-04T08:08:56.293Z,69.94
2023-08-04T08:09:58.925Z,69.17
2023-08-04T08:11:04.731Z,69.17
2023-08-04T08:12:07.794Z,69.24
2023-08-04T08:13:10.407Z,69.58
2023-08-04T08:14:13.039Z,69.04
2023-08-04T08:15:15.656Z,69.08
2023-08-04T08:16:20.190Z,70.15
2023-08-04T08:17:23.096Z,68.95
2023-08-04T08:18:25.748Z,68.28
2023-08-04T08:19:28.558Z,68.53
2023-08-04T08:20:31.182Z,68.67
2023-08-04T08:21:33.794Z,69.03
2023-08-04T08:22:36.379Z,69.39
2023-08-04T08:23:38.986Z,69.03
2023-08-04T08:24:41.650Z,68.71
2023-08-04T08:25:44.285Z,68.32
2023-08-04T08:26:47.193Z,68.26
2023-08-04T08:27:49.763Z,67.91
2023-08-04T08:28:52.335Z,68.06
2023-08-04T08:29:56.634Z,68.24
2023-08-04T08:30:59.305Z,68.15
2023-08-04T08:32:01.976Z,68.05
2023-08-04T08:33:04.670Z,68.21
2023-08-04T08:34:07.361Z,67.63
2023-08-04T08:35:10.206Z,67.15
2023-08-04T08:36:12.803Z,66.98
2023-08-04T08:37:15.436Z,67.23
2023-08-04T08:38:18.034Z,66.87
2023-08-04T08:39:22.016Z,66.83
2023-08-04T08:40:26.668Z,67.00
2023-08-04T08:41:29.696Z,66.95
2023-08-04T08:42:35.275Z,66.99
2023-08-04T08:43:38.293Z,66.57
2023-08-04T08:44:40.924Z,66.64
2023-08-04T08:45:45.400Z,66.70
2023-08-04T08:46:48.062Z,66.18
2023-08-04T08:47:50.895Z,66.38
2023-08-04T08:48:59.024Z,66.46
2023-08-04T08:50:03.434Z,66.62
2023-08-04T08:51:09.568Z,66.62
2023-08-04T08:52:12.177Z,66.74
2023-08-04T08:53:16.758Z,66.57
2023-08-04T08:54:19.908Z,66.49
2023-08-04T08:55:22.678Z,66.23
2023-08-04T08:56:26.594Z,66.28
2023-08-04T08:57:29.324Z,66.49
2023-08-04T08:58:33.373Z,66.46
2023-08-04T08:59:36.481Z,66.39
2023-08-04T09:00:39.131Z,66.40
2023-08-04T09:01:41.810Z,66.35
2023-08-04T09:02:44.770Z,66.33
2023-08-04T09:03:47.531Z,66.41
2023-08-04T09:04:50.112Z,66.24
2023-08-04T09:05:52.770Z,66.40
2023-08-04T09:06:58.083Z,66.03
2023-08-04T09:08:00.778Z,66.54
2023-08-04T09:09:03.967Z,66.70
2023-08-04T09:10:08.634Z,66.77
2023-08-04T09:11:12.068Z,66.55
2023-08-04T09:12:14.689Z,66.25
2023-08-04T09:13:17.250Z,66.37
2023-08-04T09:14:19.955Z,66.25
2023-08-04T09:15:36.449Z,65.77
2023-08-04T09:16:40.616Z,65.08
2023-08-04T09:17:43.328Z,64.90
2023-08-04T09:18:45.953Z,64.75
2023-08-04T09:19:48.621Z,64.96
2023-08-04T09:20:58.524Z,64.57
2023-08-04T09:22:01.175Z,64.35
2023-08-04T09:23:04.001Z,64.45
2023-08-04T09:24:10.505Z,64.33
2023-08-04T09:25:13.109Z,64.19
2023-08-04T09:26:16.300Z,64.37
2023-08-04T09:27:51.223Z,64.43
2023-08-04T09:29:06.865Z,64.11
2023-08-04T09:30:11.576Z,63.98
2023-08-04T09:31:15.273Z,63.67
2023-08-04T09:32:22.966Z,64.03
2023-08-04T09:33:25.644Z,64.08
2023-08-04T09:34:28.286Z,63.95
2023-08-04T09:35:32.566Z,64.26
2023-08-04T09:36:49.291Z,64.28
2023-08-04T09:37:55.354Z,64.33
2023-08-04T09:39:05.618Z,64.11
2023-08-04T09:40:19.488Z,63.92
2023-08-04T09:41:22.179Z,63.64
2023-08-04T09:42:24.917Z,63.51
2023-08-04T09:43:27.687Z,63.53
2023-08-04T09:44:36.741Z,63.61
2023-08-04T09:46:25.496Z,63.74
2023-08-04T09:47:29.196Z,63.68
2023-08-04T09:48:31.925Z,63.26
2023-08-04T09:49:36.876Z,63.31
2023-08-04T09:50:39.562Z,63.15
2023-08-04T09:51:43.132Z,62.67
2023-08-04T09:52:46.042Z,62.63
2023-08-04T09:53:53.316Z,62.50
2023-08-04T09:54:56.893Z,62.25
2023-08-04T09:56:00.259Z,62.24
2023-08-04T09:57:03.470Z,62.41
2023-08-04T09:58:06.322Z,62.46
2023-08-04T09:59:09.401Z,62.51
2023-08-04T10:00:15.253Z,62.19
2023-08-04T10:01:19.470Z,62.54
2023-08-04T10:02:22.429Z,60.99
2023-08-04T10:03:26.156Z,60.59
2023-08-04T10:04:29.022Z,60.20
2023-08-04T10:05:32.285Z,59.76
2023-08-04T10:06:35.692Z,59.75
2023-08-04T10:07:38.516Z,59.13
2023-08-04T10:08:42.364Z,58.88
2023-08-04T10:09:47.487Z,58.72
2023-08-04T10:10:52.024Z,58.88
2023-08-04T10:11:55.001Z,59.64
2023-08-04T10:12:58.028Z,60.21
2023-08-04T10:14:00.796Z,60.06
2023-08-04T10:15:03.559Z,59.46
2023-08-04T10:16:10.024Z,59.56
2023-08-04T10:17:12.991Z,59.22
2023-08-04T10:18:15.997Z,59.35
2023-08-04T10:19:19.947Z,59.66
2023-08-04T10:20:25.539Z,59.46
2023-08-04T10:21:34.429Z,58.72
2023-08-04T10:22:43.523Z,58.95
2023-08-04T10:23:46.350Z,58.82
2023-08-04T10:24:48.959Z,58.77
2023-08-04T10:25:54.478Z,58.22
2023-08-04T10:26:57.288Z,58.02
2023-08-04T10:27:59.870Z,57.97
2023-08-04T10:29:11.913Z,58.39
2023-08-04T10:30:14.617Z,58.90
2023-08-04T10:31:19.738Z,59.15
2023-08-04T10:32:22.403Z,58.84
2023-08-04T10:33:26.237Z,59.63
2023-08-04T10:34:35.023Z,58.54
2023-08-04T10:36:06.320Z,57.99
2023-08-04T10:37:12.419Z,57.73
2023-08-04T10:38:15.084Z,57.85
2023-08-04T10:39:35.304Z,58.14
2023-08-04T10:40:40.302Z,58.37
2023-08-04T10:41:42.998Z,58.30
2023-08-04T10:43:05.843Z,58.24
2023-08-04T10:44:10.406Z,58.79
2023-08-04T10:45:13.166Z,59.47
2023-08-04T10:46:16.295Z,59.58
2023-08-04T10:47:35.111Z,58.86
2023-08-04T10:48:41.700Z,59.55
2023-08-04T10:49:44.447Z,59.60
2023-08-04T10:50:47.378Z,59.60
2023-08-04T10:51:50.785Z,59.43
2023-08-04T10:52:53.503Z,59.99
2023-08-04T10:53:56.161Z,60.18
2023-08-04T10:54:59.428Z,59.43
2023-08-04T10:56:02.480Z,58.91
2023-08-04T10:57:05.225Z,58.15
2023-08-04T10:58:17.187Z,58.59
2023-08-04T10:59:19.779Z,59.11
2023-08-04T11:00:22.416Z,59.24
2023-08-04T11:01:28.413Z,59.71
2023-08-04T11:02:31.075Z,59.26
2023-08-04T11:03:37.572Z,58.86
2023-08-04T11:04:42.448Z,58.13
2023-08-04T11:05:45.316Z,57.93
2023-08-04T11:06:48.554Z,58.23
2023-08-04T11:07:51.221Z,57.89
2023-08-04T11:08:53.822Z,58.56
2023-08-04T11:09:56.813Z,58.97
2023-08-04T11:10:59.557Z,58.46
2023-08-04T11:12:04.759Z,58.37
2023-08-04T11:13:07.393Z,58.36
2023-08-04T11:14:10.094Z,58.29
2023-08-04T11:15:12.952Z,57.86
2023-08-04T11:16:18.435Z,58.11
2023-08-04T11:17:22.535Z,58.45
2023-08-04T11:18:28.104Z,58.07
2023-08-04T11:19:30.728Z,57.98
2023-08-04T11:20:33.933Z,58.31
2023-08-04T11:21:37.011Z,57.96
2023-08-04T11:22:45.233Z,57.63
2023-08-04T11:23:49.696Z,57.65
2023-08-04T11:24:53.749Z,57.40
2023-08-04T11:25:57.915Z,57.50
2023-08-04T11:27:00.679Z,57.84
2023-08-04T11:28:03.958Z,58.30
2023-08-04T11:29:06.599Z,58.08
2023-08-04T11:30:12.185Z,57.49
2023-08-04T11:31:21.322Z,57.08
2023-08-04T11:32:26.420Z,57.15
2023-08-04T11:33:29.106Z,57.04
2023-08-04T11:34:32.037Z,56.89
2023-08-04T11:35:34.783Z,56.87
2023-08-04T11:36:37.397Z,56.95
2023-08-04T11:37:40.005Z,57.56
2023-08-04T11:38:42.638Z,58.12
2023-08-04T11:39:45.431Z,58.16
2023-08-04T11:40:58.268Z,58.15
2023-08-04T11:42:01.279Z,57.94
2023-08-04T11:43:03.908Z,58.38
2023-08-04T11:44:06.571Z,57.76
2023-08-04T11:45:10.162Z,57.66
2023-08-04T11:46:12.844Z,57.84
2023-08-04T11:47:16.417Z,57.88
2023-08-04T11:48:20.378Z,58.21
2023-08-04T11:49:23.870Z,57.89
2023-08-04T11:50:26.845Z,58.17
2023-08-04T11:51:29.492Z,58.07
2023-08-04T11:52:32.168Z,57.66
2023-08-04T11:53:35.008Z,57.67
2023-08-04T11:54:37.823Z,57.94
2023-08-04T11:56:04.038Z,56.96
2023-08-04T11:57:06.870Z,57.07
2023-08-04T11:58:09.493Z,57.03
2023-08-04T11:59:13.361Z,57.02
2023-08-04T12:01:35.139Z,57.02
2023-08-04T12:02:38.109Z,57.04
2023-08-04T12:03:49.027Z,57.00
2023-08-04T12:05:08.851Z,56.78
2023-08-04T12:06:22.453Z,56.19
2023-08-04T12:07:28.690Z,56.35
2023-08-04T12:08:31.334Z,55.80
2023-08-04T12:09:34.954Z,55.91
2023-08-04T12:10:38.518Z,56.26
2023-08-04T12:11:51.201Z,56.36
2023-08-04T12:12:53.944Z,56.19
2023-08-04T12:14:10.516Z,56.33
2023-08-04T12:15:13.144Z,56.11
2023-08-04T12:16:16.789Z,56.00
2023-08-04T12:17:19.650Z,56.01
2023-08-04T12:18:26.398Z,56.04
2023-08-04T12:19:31.441Z,55.63
2023-08-04T12:20:34.047Z,55.55
2023-08-04T12:21:36.677Z,55.64
2023-08-04T12:22:41.021Z,55.81
2023-08-04T12:23:50.561Z,55.63
2023-08-04T12:24:53.611Z,55.21
2023-08-04T12:25:56.287Z,55.17
2023-08-04T12:26:59.299Z,55.14
2023-08-04T12:28:01.920Z,55.07
2023-08-04T12:29:04.706Z,55.22
2023-08-04T12:30:08.223Z,55.44
2023-08-04T12:31:15.859Z,55.56
2023-08-04T12:32:19.213Z,55.44
2023-08-04T12:33:21.913Z,55.30
2023-08-04T12:34:24.567Z,55.45
2023-08-04T12:35:27.202Z,55.34
2023-08-04T12:36:29.994Z,55.27
2023-08-04T12:37:32.796Z,55.36
2023-08-04T12:38:35.430Z,55.22
2023-08-04T12:39:38.065Z,54.60
2023-08-04T12:40:41.209Z,54.67
2023-08-04T12:41:44.006Z,54.61
2023-08-04T12:42:46.677Z,54.63
2023-08-04T12:43:49.419Z,54.57
2023-08-04T12:44:52.101Z,54.52
2023-08-04T12:45:54.796Z,54.94
2023-08-04T12:46:57.899Z,55.27
2023-08-04T12:48:00.628Z,55.26
2023-08-04T12:49:04.406Z,55.41
2023-08-04T12:50:07.883Z,55.32
2023-08-04T12:51:10.623Z,55.21
2023-08-04T12:52:13.325Z,54.77
2023-08-04T12:53:16.067Z,54.62
2023-08-04T12:54:18.764Z,55.01
2023-08-04T12:55:22.657Z,55.23
2023-08-04T12:56:25.429Z,54.92
2023-08-04T12:57:28.038Z,54.79
2023-08-04T12:58:32.432Z,54.53
2023-08-04T12:59:35.482Z,54.53
2023-08-04T13:00:38.170Z,54.61
2023-08-04T13:01:40.948Z,54.71
2023-08-04T13:02:43.692Z,54.46
2023-08-04T13:03:46.477Z,54.79
2023-08-04T13:04:49.341Z,54.83
2023-08-04T13:05:52.058Z,55.04
2023-08-04T13:06:54.733Z,55.14
2023-08-04T13:07:58.134Z,55.06
2023-08-04T13:09:00.848Z,54.70
2023-08-04T13:10:03.447Z,54.93
2023-08-04T13:11:06.157Z,54.98
2023-08-04T13:12:09.196Z,54.84
2023-08-04T13:13:11.787Z,54.92
2023-08-04T13:14:14.389Z,54.52
2023-08-04T13:15:16.997Z,54.66
2023-08-04T13:16:19.757Z,55.15
2023-08-04T13:17:22.649Z,55.25
2023-08-04T13:18:25.339Z,55.24
2023-08-04T13:19:28.097Z,55.31
2023-08-04T13:20:30.755Z,55.62
2023-08-04T13:21:33.378Z,55.62
2023-08-04T13:22:36.835Z,55.28
2023-08-04T13:23:39.444Z,55.24
2023-08-04T13:24:42.007Z,55.40
2023-08-04T13:25:44.654Z,55.47
2023-08-04T13:26:47.304Z,55.46
2023-08-04T13:27:49.915Z,55.72
2023-08-04T13:28:52.907Z,55.63
2023-08-04T13:29:55.548Z,54.85
2023-08-04T13:31:00.530Z,54.79
2023-08-04T13:32:04.464Z,55.08
2023-08-04T13:33:07.341Z,55.21
2023-08-04T13:34:10.002Z,55.01
2023-08-04T13:35:12.646Z,55.00
2023-08-04T13:36:15.395Z,54.54
2023-08-04T13:37:17.964Z,54.50
2023-08-04T13:38:20.780Z,54.47
2023-08-04T13:39:25.246Z,54.49
2023-08-04T13:40:27.832Z,54.51
2023-08-04T13:41:30.490Z,55.04